Time;durP1;ratioP1;P1;durP2;ratioP2;P2;SDS_P1;SDS_P2;PMS_P1;PMS_P2;Temp;Humidity;BMP_temperature;BMP_pressure;BME280_temperature;BME280_humidity;BME280_pressure;Samples;Min_cycle;Max_cycle;Signal;HPM_P1;HPM_P2
2022/10/03 00:01:46;;;;;;;5.50;5.00;;;13.10;1.00;;;;;;5039819;28;20421;-67
2022/10/03 00:04:31;;;;;;;8.13;5.03;;;13.20;1.00;;;;;;5039608;28;20436;-68
2022/10/03 00:06:59;;;;;;;5.17;4.43;;;13.20;1.00;;;;;;5041155;28;20579;-67
2022/10/03 00:09:57;;;;;;;5.53;4.80;;;13.10;1.00;;;;;;5041034;28;20469;-67
2022/10/03 00:12:49;;;;;;;5.70;4.40;;;13.20;1.00;;;;;;5040765;28;20407;-65
2022/10/03 00:15:50;;;;;;;5.30;4.80;;;13.10;1.00;;;;;;5040759;28;20414;-65
2022/10/03 00:18:34;;;;;;;5.90;5.10;;;13.10;1.00;;;;;;4976066;28;20428;-65
2022/10/03 00:21:31;;;;;;;5.60;5.00;;;13.00;1.00;;;;;;5012468;28;20437;-66
2022/10/03 00:24:18;;;;;;;6.00;5.47;;;13.00;1.00;;;;;;5026797;28;20418;-66
2022/10/03 00:27:19;;;;;;;5.90;5.40;;;13.00;1.00;;;;;;5032091;28;20435;-67
2022/10/03 00:29:47;;;;;;;7.17;5.73;;;12.80;1.00;;;;;;5009580;28;20526;-66
2022/10/03 00:32:31;;;;;;;6.30;4.77;;;12.70;1.00;;;;;;5009243;28;20446;-66
2022/10/03 00:35:12;;;;;;;6.10;5.50;;;12.80;1.00;;;;;;5014773;28;20458;-66
2022/10/03 00:38:00;;;;;;;7.43;4.43;;;12.80;1.00;;;;;;5025099;28;20505;-66
2022/10/03 00:40:44;;;;;;;6.40;4.97;;;12.90;1.00;;;;;;5019662;28;20469;-66
2022/10/03 00:43:32;;;;;;;8.87;5.70;;;12.90;1.00;;;;;;5024131;28;20453;-66
2022/10/03 00:46:31;;;;;;;6.10;4.60;;;12.90;1.00;;;;;;5027941;28;20442;-66
2022/10/03 00:49:37;;;;;;;12.80;5.50;;;12.90;1.00;;;;;;5017881;28;20459;-66
2022/10/03 00:52:37;;;;;;;8.70;5.20;;;12.80;1.00;;;;;;4988900;28;20550;-66
2022/10/03 00:55:25;;;;;;;6.27;4.50;;;12.80;1.00;;;;;;5017704;28;20980;-66
2022/10/03 00:58:29;;;;;;;7.17;4.97;;;12.80;1.00;;;;;;5019246;28;20845;-66
2022/10/03 01:01:18;;;;;;;5.50;4.83;;;12.80;1.00;;;;;;4984276;28;20909;-66
2022/10/03 01:04:04;;;;;;;5.60;4.90;;;12.80;1.00;;;;;;5014305;28;20414;-66
2022/10/03 01:06:46;;;;;;;7.77;6.13;;;12.80;1.00;;;;;;5030524;28;20903;-66
2022/10/03 01:09:24;;;;;;;6.03;5.43;;;12.80;1.00;;;;;;5029845;28;20486;-66
2022/10/03 01:12:06;;;;;;;8.50;5.70;;;12.70;1.00;;;;;;5030488;28;20481;-66
2022/10/03 01:14:55;;;;;;;6.57;5.70;;;12.70;1.00;;;;;;5030177;28;20521;-66
2022/10/03 01:17:48;;;;;;;7.73;6.50;;;12.70;1.00;;;;;;5007234;28;20430;-66
2022/10/03 01:20:28;;;;;;;9.20;5.40;;;12.70;1.00;;;;;;5010149;28;20412;-65
2022/10/03 01:23:06;;;;;;;11.77;6.57;;;12.60;1.00;;;;;;5010556;28;20402;-66
2022/10/03 01:25:37;;;;;;;8.27;5.73;;;12.40;1.00;;;;;;5011059;28;20430;-66
2022/10/03 01:31:45;;;;;;;7.27;5.87;;;12.10;1.00;;;;;;5008308;28;20853;-66
2022/10/03 01:34:42;;;;;;;9.87;5.90;;;12.00;1.00;;;;;;5010078;28;20943;-66
2022/10/03 01:37:14;;;;;;;7.37;6.67;;;11.90;1.00;;;;;;5010035;28;20439;-66
2022/10/03 01:40:10;;;;;;;10.27;6.30;;;11.90;1.00;;;;;;5008777;28;20815;-66
2022/10/03 01:43:01;;;;;;;7.13;6.00;;;12.00;1.00;;;;;;5009492;28;20481;-66
2022/10/03 01:45:30;;;;;;;6.10;5.37;;;12.00;1.00;;;;;;5009877;28;20450;-66
2022/10/03 01:48:07;;;;;;;7.37;5.70;;;11.90;1.00;;;;;;5010156;28;20501;-65
2022/10/03 01:51:06;;;;;;;7.57;5.73;;;11.70;1.00;;;;;;5009214;28;21001;-64
2022/10/03 01:53:47;;;;;;;8.17;6.10;;;11.70;1.00;;;;;;5009764;28;20399;-65
2022/10/03 01:56:27;;;;;;;7.67;5.23;;;11.40;1.00;;;;;;5009931;28;20440;-65
2022/10/03 01:59:13;;;;;;;7.20;6.00;;;11.40;1.00;;;;;;5009489;28;20409;-65
2022/10/03 02:01:45;;;;;;;6.67;5.87;;;11.50;1.00;;;;;;5009189;28;20442;-65
2022/10/03 02:04:30;;;;;;;7.83;6.30;;;11.60;1.00;;;;;;5009543;28;20434;-65
2022/10/03 02:07:20;;;;;;;6.50;5.30;;;11.70;1.00;;;;;;5010390;28;20458;-65
2022/10/03 02:09:49;;;;;;;7.60;6.00;;;11.70;1.00;;;;;;5009768;28;20549;-65
2022/10/03 02:12:21;;;;;;;6.80;5.70;;;11.70;1.00;;;;;;5009216;28;20410;-65
2022/10/03 02:15:14;;;;;;;7.43;6.40;;;11.60;1.00;;;;;;5009211;28;20423;-65
2022/10/03 02:17:58;;;;;;;7.10;6.23;;;11.50;1.00;;;;;;5010104;28;20557;-65
2022/10/03 02:20:43;;;;;;;10.33;6.17;;;11.50;1.00;;;;;;5009432;28;20403;-66
2022/10/03 02:23:30;;;;;;;8.57;6.47;;;11.40;1.00;;;;;;5009739;28;20407;-66
2022/10/03 02:26:08;;;;;;;9.10;6.00;;;11.40;1.00;;;;;;5009757;28;20477;-66
2022/10/03 02:28:50;;;;;;;6.93;6.23;;;11.30;1.00;;;;;;5010972;28;20903;-66
2022/10/03 02:31:40;;;;;;;8.50;6.30;;;11.30;1.00;;;;;;5011069;28;20396;-66
2022/10/03 02:34:25;;;;;;;7.70;6.90;;;11.40;1.00;;;;;;5013122;28;21199;-66
2022/10/03 02:37:02;;;;;;;7.73;6.50;;;11.50;1.00;;;;;;5013116;28;20407;-66
2022/10/03 02:39:43;;;;;;;9.00;6.40;;;11.60;1.00;;;;;;5013056;28;20522;-66
2022/10/03 02:42:50;;;;;;;11.63;6.60;;;11.50;1.00;;;;;;5012533;28;20510;-66
2022/10/03 02:45:37;;;;;;;7.53;6.73;;;11.60;1.00;;;;;;5001408;28;20925;-66
2022/10/03 02:48:25;;;;;;;9.30;7.73;;;11.60;1.00;;;;;;5013097;28;20403;-66
2022/10/03 02:51:25;;;;;;;7.77;6.90;;;11.40;1.00;;;;;;5012475;28;20971;-65
2022/10/03 02:54:13;;;;;;;8.80;6.93;;;11.50;1.00;;;;;;5012826;28;20411;-66
2022/10/03 02:56:50;;;;;;;8.07;7.27;;;11.50;1.00;;;;;;5013299;28;20747;-65
2022/10/03 02:59:36;;;;;;;11.40;7.53;;;11.50;1.00;;;;;;5012382;28;20687;-65
2022/10/03 03:02:08;;;;;;;7.23;6.53;;;11.50;1.00;;;;;;5012139;28;20403;-64
2022/10/03 03:05:14;;;;;;;8.00;6.63;;;11.20;1.00;;;;;;5012578;28;20432;-64
2022/10/03 03:07:58;;;;;;;7.50;6.67;;;10.90;1.00;;;;;;5012526;28;20938;-64
2022/10/03 03:10:44;;;;;;;6.90;6.20;;;10.80;1.00;;;;;;5012139;28;20462;-64
2022/10/03 03:13:35;;;;;;;9.90;7.53;;;10.80;1.00;;;;;;5011915;28;20415;-65
2022/10/03 03:16:19;;;;;;;9.13;7.27;;;10.90;1.00;;;;;;5012334;28;20509;-64
2022/10/03 03:19:22;;;;;;;8.93;6.70;;;10.90;1.00;;;;;;5012406;28;20413;-65
2022/10/03 03:21:52;;;;;;;12.50;7.17;;;11.00;1.00;;;;;;5011743;28;20407;-65
2022/10/03 03:24:35;;;;;;;11.13;7.13;;;11.10;1.00;;;;;;5012152;28;20434;-65
2022/10/03 03:27:31;;;;;;;7.77;6.37;;;11.20;1.00;;;;;;5012358;28;20633;-65
2022/10/03 03:30:08;;;;;;;7.60;5.63;;;11.20;1.00;;;;;;5011515;28;20458;-65
2022/10/03 03:32:48;;;;;;;12.33;6.50;;;11.10;1.00;;;;;;5010051;28;20423;-65
2022/10/03 03:35:45;;;;;;;7.70;6.73;;;11.20;1.00;;;;;;5012363;28;20415;-65
2022/10/03 03:38:30;;;;;;;8.63;7.00;;;11.20;1.00;;;;;;5012375;28;20856;-65
2022/10/03 03:41:26;;;;;;;9.27;6.03;;;11.30;1.00;;;;;;5011602;28;20945;-64
2022/10/03 03:44:05;;;;;;;7.47;6.17;;;11.30;1.00;;;;;;5011346;28;20784;-64
2022/10/03 03:46:50;;;;;;;7.63;6.47;;;11.30;1.00;;;;;;5012428;28;20418;-64
2022/10/03 03:49:59;;;;;;;8.53;5.23;;;11.30;1.00;;;;;;5011802;28;20970;-65
2022/10/03 03:52:27;;;;;;;10.70;6.13;;;11.30;1.00;;;;;;5010998;28;20457;-65
2022/10/03 03:54:59;;;;;;;7.63;6.17;;;11.30;1.00;;;;;;5011716;28;20455;-65
2022/10/03 03:57:42;;;;;;;10.43;6.30;;;11.30;1.00;;;;;;5012130;28;20419;-65
2022/10/03 04:00:21;;;;;;;7.17;6.03;;;11.30;1.00;;;;;;5011506;28;20446;-65
2022/10/03 04:02:54;;;;;;;9.90;6.40;;;11.20;1.00;;;;;;5011301;28;20414;-65
2022/10/03 04:05:44;;;;;;;11.87;6.83;;;11.20;1.00;;;;;;5011400;28;20545;-65
2022/10/03 04:08:37;;;;;;;6.07;5.47;;;11.20;1.00;;;;;;5011482;28;20429;-65
2022/10/03 04:11:30;;;;;;;16.03;7.60;;;11.20;1.00;;;;;;5010265;28;20439;-65
2022/10/03 04:14:37;;;;;;;9.67;6.33;;;11.30;1.00;;;;;;5011027;28;20784;-64
2022/10/03 04:20:10;;;;;;;6.70;5.83;;;11.20;1.00;;;;;;5011717;28;20391;-64
2022/10/03 04:22:56;;;;;;;11.83;6.87;;;11.10;1.00;;;;;;5011146;28;20924;-64
2022/10/03 04:25:45;;;;;;;7.17;5.47;;;11.10;1.00;;;;;;5011396;28;20427;-66
2022/10/03 04:28:33;;;;;;;20.70;7.70;;;11.00;1.00;;;;;;5010746;28;20747;-64
2022/10/03 04:31:32;;;;;;;7.80;6.20;;;11.00;1.00;;;;;;5008775;28;20419;-64
2022/10/03 04:34:13;;;;;;;7.97;6.17;;;11.00;1.00;;;;;;5010789;28;20414;-64
2022/10/03 04:36:57;;;;;;;9.53;6.57;;;11.00;1.00;;;;;;5011314;28;20425;-64
2022/10/03 04:39:37;;;;;;;8.33;6.90;;;11.00;1.00;;;;;;5010936;28;20465;-64
2022/10/03 04:42:25;;;;;;;13.20;7.80;;;11.00;1.00;;;;;;5010452;28;20411;-66
2022/10/03 04:44:51;;;;;;;9.23;6.13;;;11.00;1.00;;;;;;5011575;28;20465;-64
2022/10/03 04:47:27;;;;;;;9.87;6.83;;;10.90;1.00;;;;;;5012107;28;20923;-66
2022/10/03 04:50:11;;;;;;;8.43;6.53;;;10.70;1.00;;;;;;5011029;28;20226;-66
2022/10/03 04:53:26;;;;;;;7.73;6.37;;;10.80;1.00;;;;;;5010713;28;20931;-66
2022/10/03 04:56:21;;;;;;;11.03;6.53;;;10.70;1.00;;;;;;4969915;28;20613;-66
2022/10/03 04:59:11;;;;;;;7.90;6.83;;;10.80;1.00;;;;;;5011019;28;20407;-66
2022/10/03 05:01:49;;;;;;;10.43;7.10;;;10.60;1.00;;;;;;5010297;28;20414;-67
2022/10/03 05:04:17;;;;;;;19.10;6.93;;;10.60;1.00;;;;;;5011365;28;20431;-66
2022/10/03 05:06:57;;;;;;;7.57;6.87;;;10.60;1.00;;;;;;5010796;28;20411;-67
2022/10/03 05:09:38;;;;;;;20.93;7.10;;;10.60;1.00;;;;;;5010403;28;20482;-66
2022/10/03 05:12:37;;;;;;;18.37;8.43;;;10.70;1.00;;;;;;5009724;28;20478;-67
2022/10/03 05:15:33;;;;;;;42.93;8.40;;;10.70;1.00;;;;;;5009883;28;21288;-67
2022/10/03 05:18:25;;;;;;;13.70;8.40;;;10.80;1.00;;;;;;5010565;28;20410;-64
2022/10/03 05:21:08;;;;;;;10.10;6.63;;;10.80;1.00;;;;;;5009636;28;20399;-67
2022/10/03 05:24:03;;;;;;;7.07;6.23;;;10.80;1.00;;;;;;5010360;28;20403;-67
2022/10/03 05:26:40;;;;;;;8.20;6.00;;;10.50;1.00;;;;;;5010678;28;20900;-67
2022/10/03 05:29:19;;;;;;;6.80;6.10;;;10.30;1.00;;;;;;5009719;28;20462;-66
2022/10/03 05:32:10;;;;;;;6.00;5.17;;;10.30;1.00;;;;;;5007712;28;20422;-66
2022/10/03 05:34:55;;;;;;;8.47;6.70;;;10.40;1.00;;;;;;5009979;28;20432;-66
2022/10/03 05:37:27;;;;;;;12.57;7.10;;;10.60;1.00;;;;;;5010296;28;20418;-66
2022/10/03 05:40:12;;;;;;;13.63;6.90;;;10.80;99.90;;;;;;5010278;28;20841;-66
2022/10/03 05:42:58;;;;;;;141.17;19.63;;;11.10;99.90;;;;;;5009321;28;20747;-66
2022/10/03 05:45:42;;;;;;;29.70;7.20;;;11.80;1.00;;;;;;5008949;28;20827;-66
2022/10/03 05:48:44;;;;;;;9.43;6.17;;;12.00;89.70;;;;;;5009896;28;20411;-66
2022/10/03 05:51:21;;;;;;;9.83;5.30;;;11.60;11.50;;;;;;5009292;28;20509;-66
2022/10/03 05:53:56;;;;;;;6.20;5.10;;;10.80;1.00;;;;;;5010341;28;20406;-66
2022/10/03 05:56:49;;;;;;;5.97;5.23;;;10.20;40.60;;;;;;5010404;28;20399;-66
2022/10/03 05:59:49;;;;;;;6.70;6.00;;;9.90;1.00;;;;;;5016486;28;20422;-66
2022/10/03 06:02:31;;;;;;;12.20;4.50;;;10.10;1.00;;;;;;5028917;28;20414;-66
2022/10/03 06:05:24;;;;;;;21.53;6.10;;;9.80;1.00;;;;;;5018274;28;20506;-66
2022/10/03 06:08:13;;;;;;;10.93;5.73;;;9.60;1.00;;;;;;5013819;28;20399;-66
2022/10/03 06:10:51;;;;;;;13.23;5.40;;;9.70;1.00;;;;;;5011653;28;20480;-67
2022/10/03 06:13:47;;;;;;;16.07;7.57;;;9.80;1.00;;;;;;5026532;28;20912;-66
2022/10/03 06:16:34;;;;;;;28.30;6.57;;;10.20;1.00;;;;;;5027087;28;20946;-66
2022/10/03 06:19:10;;;;;;;8.80;7.10;;;10.90;99.90;;;;;;5026927;28;20446;-67
2022/10/03 06:22:06;;;;;;;14.37;5.37;;;11.10;1.00;;;;;;5015423;28;20469;-67
2022/10/03 06:24:59;;;;;;;27.07;7.57;;;11.30;99.90;;;;;;5019858;28;20512;-67
2022/10/03 06:27:48;;;;;;;49.10;9.07;;;11.20;99.90;;;;;;5030764;28;20491;-67
2022/10/03 06:30:59;;;;;;;21.00;6.03;;;11.20;99.90;;;;;;5012726;28;20818;-67
2022/10/03 06:33:57;;;;;;;10.53;5.17;;;11.40;1.00;;;;;;5002461;28;20426;-66
2022/10/03 06:36:44;;;;;;;7.40;3.80;;;11.40;1.00;;;;;;5019580;28;20957;-67
2022/10/03 06:39:34;;;;;;;7.03;4.37;;;11.60;79.00;;;;;;5022199;28;20501;-67
2022/10/03 06:42:21;;;;;;;5.47;4.90;;;11.80;1.00;;;;;;5021133;28;20407;-67
2022/10/03 06:45:08;;;;;;;4.60;4.20;;;11.80;99.90;;;;;;5032085;28;20453;-67
2022/10/03 06:47:53;;;;;;;5.30;4.80;;;11.70;1.00;;;;;;5032867;28;20501;-67
2022/10/03 06:50:39;;;;;;;17.03;5.43;;;11.60;1.00;;;;;;5031091;28;20464;-67
2022/10/03 06:53:13;;;;;;;40.57;7.43;;;11.70;99.90;;;;;;5024349;28;20402;-65
2022/10/03 06:56:05;;;;;;;43.93;9.50;;;11.80;99.90;;;;;;5032861;28;20484;-66
2022/10/03 06:58:57;;;;;;;42.27;9.23;;;11.80;1.00;;;;;;5032005;28;20395;-66
2022/10/03 07:01:54;;;;;;;11.80;6.03;;;11.90;1.00;;;;;;5026584;28;20890;-67
2022/10/03 07:04:51;;;;;;;20.10;6.20;;;12.20;1.00;;;;;;5003189;28;20989;-66
2022/10/03 07:07:39;;;;;;;17.27;6.10;;;12.00;1.00;;;;;;5024137;28;20542;-67
2022/10/03 07:10:43;;;;;;;16.27;5.57;;;12.00;99.90;;;;;;5014493;28;20455;-66
2022/10/03 07:13:41;;;;;;;26.60;6.63;;;12.00;1.00;;;;;;5006000;28;20415;-66
2022/10/03 07:16:24;;;;;;;7.00;5.67;;;11.60;1.00;;;;;;5012813;28;20406;-66
2022/10/03 07:19:04;;;;;;;5.13;4.63;;;11.50;55.10;;;;;;5012144;28;20403;-66
2022/10/03 07:21:57;;;;;;;27.33;6.50;;;11.90;1.00;;;;;;5016404;28;20431;-66
2022/10/03 07:24:42;;;;;;;11.13;6.60;;;12.10;99.90;;;;;;5016270;28;20828;-66
2022/10/03 07:27:32;;;;;;;8.30;5.90;;;12.30;1.00;;;;;;5021500;28;20545;-67
2022/10/03 07:30:21;;;;;;;9.60;5.63;;;12.60;99.90;;;;;;5016833;28;20466;-65
2022/10/03 07:33:05;;;;;;;5.70;5.10;;;12.90;99.90;;;;;;5027348;28;20402;-67
2022/10/03 07:39:24;;;;;;;9.10;5.30;;;13.40;1.00;;;;;;5019286;28;20410;-66
2022/10/03 07:42:14;;;;;;;17.17;7.13;;;14.00;99.90;;;;;;5024156;28;20406;-67
2022/10/03 07:44:49;;;;;;;21.33;7.63;;;14.50;1.00;;;;;;5014940;28;20454;-66
2022/10/03 07:47:43;;;;;;;29.03;7.10;;;15.20;99.90;;;;;;5021490;28;20422;-66
2022/10/03 07:50:39;;;;;;;15.70;6.70;;;15.70;57.70;;;;;;5020078;28;20962;-66
2022/10/03 07:53:22;;;;;;;35.67;7.60;;;16.20;1.00;;;;;;5023492;28;20402;-67
2022/10/03 07:55:53;;;;;;;19.87;7.50;;;16.60;1.00;;;;;;5026764;28;20453;-68
2022/10/03 07:58:47;;;;;;;37.40;8.10;;;17.30;1.00;;;;;;5028294;28;20783;-67
2022/10/03 08:01:43;;;;;;;48.27;10.60;;;17.90;1.00;;;;;;5021553;28;20406;-66
2022/10/03 08:04:42;;;;;;;20.77;7.10;;;18.40;1.00;;;;;;5031022;28;20909;-66
2022/10/03 08:07:11;;;;;;;7.07;6.37;;;18.80;1.00;;;;;;5031534;28;20402;-65
2022/10/03 08:09:57;;;;;;;13.70;7.33;;;18.50;1.00;;;;;;5031361;28;20544;-67
2022/10/03 08:12:39;;;;;;;16.60;7.40;;;18.80;1.00;;;;;;5023746;28;20957;-67
2022/10/03 08:15:07;;;;;;;10.33;6.90;;;18.90;99.90;;;;;;5018657;28;20431;-66
2022/10/03 08:17:36;;;;;;;12.00;7.97;;;18.80;99.90;;;;;;5023568;28;20437;-66
2022/10/03 08:20:35;;;;;;;18.40;7.70;;;18.70;99.90;;;;;;5031418;28;20429;-65
2022/10/03 08:23:14;;;;;;;19.30;6.90;;;18.60;99.90;;;;;;5025374;28;20495;-66
2022/10/03 08:26:14;;;;;;;6.43;5.83;;;18.50;99.90;;;;;;5031143;28;20515;-66
2022/10/03 08:29:17;;;;;;;9.40;6.07;;;17.90;1.00;;;;;;5017405;28;20414;-66
2022/10/03 08:32:07;;;;;;;13.50;6.73;;;17.90;99.90;;;;;;5015556;28;20407;-65
2022/10/03 08:34:54;;;;;;;13.17;7.30;;;17.90;1.00;;;;;;5012603;28;20419;-65
2022/10/03 08:37:43;;;;;;;9.07;6.00;;;18.10;1.00;;;;;;5012864;28;21031;-66
2022/10/03 08:40:59;;;;;;;7.80;6.30;;;19.00;99.90;;;;;;5023936;28;20402;-66
2022/10/03 08:43:45;;;;;;;17.97;7.00;;;19.80;99.90;;;;;;5030112;28;20485;-66
2022/10/03 08:46:38;;;;;;;20.90;7.70;;;19.90;99.90;;;;;;5025008;28;20445;-65
2022/10/03 08:49:10;;;;;;;26.53;7.27;;;20.30;99.90;;;;;;5026524;28;20446;-66
2022/10/03 08:51:47;;;;;;;19.30;7.27;;;20.70;99.90;;;;;;5021149;28;20458;-66
2022/10/03 08:54:28;;;;;;;46.93;9.00;;;20.00;99.90;;;;;;5017042;28;20430;-66
2022/10/03 08:57:08;;;;;;;25.97;8.10;;;20.40;99.90;;;;;;5018941;28;20419;-68
2022/10/03 09:00:11;;;;;;;28.87;8.20;;;20.40;99.90;;;;;;5022514;28;20958;-66
2022/10/03 09:03:02;;;;;;;10.63;7.00;;;20.60;99.90;;;;;;5019129;28;20415;-64
2022/10/03 09:05:30;;;;;;;10.20;6.77;;;21.00;99.90;;;;;;5021400;28;20431;-66
2022/10/03 09:08:02;;;;;;;114.07;16.50;;;20.90;99.90;;;;;;5023643;28;20411;-65
2022/10/03 09:10:35;;;;;;;24.57;8.57;;;21.10;99.90;;;;;;5020088;28;20493;-66
2022/10/03 09:13:26;;;;;;;121.67;18.77;;;21.00;99.90;;;;;;5017317;28;20469;-66
2022/10/03 09:16:00;;;;;;;31.43;11.30;;;21.10;99.90;;;;;;5027420;28;20419;-67
2022/10/03 09:18:53;;;;;;;33.43;9.20;;;21.50;99.90;;;;;;5017632;28;20414;-65
2022/10/03 09:21:43;;;;;;;77.80;12.80;;;21.50;99.90;;;;;;5010446;28;20508;-65
2022/10/03 09:24:39;;;;;;;34.87;9.60;;;21.40;99.90;;;;;;5010046;28;20428;-65
2022/10/03 09:27:19;;;;;;;68.90;11.83;;;21.30;99.90;;;;;;5010246;28;20411;-65
2022/10/03 09:29:50;;;;;;;82.03;14.53;;;21.50;99.90;;;;;;5009550;28;20497;-65
2022/10/03 09:32:34;;;;;;;62.70;12.40;;;21.60;99.90;;;;;;5009137;28;20430;-65
2022/10/03 09:35:37;;;;;;;108.50;18.50;;;21.40;99.90;;;;;;5010365;28;20427;-67
2022/10/03 09:38:40;;;;;;;80.90;14.90;;;21.70;99.90;;;;;;4975588;28;20477;-66
2022/10/03 09:41:36;;;;;;;25.27;8.33;;;21.80;99.90;;;;;;5009333;28;20494;-67
2022/10/03 09:44:05;;;;;;;6.97;6.37;;;21.70;99.90;;;;;;5013678;28;20515;-67
2022/10/03 09:47:21;;;;;;;35.13;8.30;;;21.30;99.90;;;;;;5027043;28;20468;-66
2022/10/03 09:49:54;;;;;;;22.17;7.00;;;21.10;99.90;;;;;;5019812;28;20968;-66
2022/10/03 09:53:01;;;;;;;10.97;5.10;;;21.30;99.90;;;;;;5019160;28;20913;-67
2022/10/03 09:56:05;;;;;;;24.57;6.60;;;21.70;99.90;;;;;;5029929;28;20434;-66
2022/10/03 09:58:52;;;;;;;8.30;6.00;;;21.50;99.90;;;;;;5026058;28;20425;-67
2022/10/03 10:01:41;;;;;;;5.30;4.80;;;21.60;99.90;;;;;;5029018;28;20509;-67
2022/10/03 10:04:34;;;;;;;5.47;3.80;;;21.30;99.90;;;;;;5029405;28;20468;-67
2022/10/03 10:07:37;;;;;;;5.10;4.60;;;20.00;99.90;;;;;;5028700;28;20501;-67
2022/10/03 10:10:36;;;;;;;21.47;5.60;;;19.60;99.90;;;;;;5009401;28;20457;-67
2022/10/03 10:13:10;;;;;;;15.70;4.90;;;19.20;99.90;;;;;;5009806;28;20550;-66
2022/10/03 10:16:08;;;;;;;6.00;3.83;;;19.20;99.90;;;;;;5009498;28;20995;-66
2022/10/03 10:18:47;;;;;;;6.60;4.00;;;19.50;99.90;;;;;;5009709;28;20935;-67
2022/10/03 10:21:31;;;;;;;16.93;5.80;;;19.50;99.90;;;;;;5009225;28;20411;-67
2022/10/03 10:24:23;;;;;;;61.47;9.80;;;20.10;99.90;;;;;;5012588;28;21053;-66
2022/10/03 10:27:07;;;;;;;17.93;6.20;;;20.00;99.90;;;;;;5012866;28;20511;-66
2022/10/03 10:30:07;;;;;;;19.83;7.03;;;20.30;99.90;;;;;;5028703;28;20453;-67
2022/10/03 10:32:41;;;;;;;12.47;5.43;;;20.00;99.90;;;;;;5028624;28;20932;-66
2022/10/03 10:35:07;;;;;;;11.60;7.50;;;18.90;99.90;;;;;;5029228;28;20500;-66
2022/10/03 10:38:11;;;;;;;7.47;6.13;;;18.80;99.90;;;;;;5023045;28;20442;-66
2022/10/03 10:40:53;;;;;;;8.80;5.20;;;18.70;99.90;;;;;;5020932;28;20215;-66
2022/10/03 10:43:41;;;;;;;8.83;5.30;;;18.80;99.90;;;;;;5020755;28;20422;-66
2022/10/03 10:46:30;;;;;;;6.13;4.37;;;18.50;99.90;;;;;;5024880;28;20426;-68
2022/10/03 10:49:26;;;;;;;25.00;6.17;;;17.90;99.90;;;;;;5020338;28;20406;-66
2022/10/03 10:52:16;;;;;;;19.83;8.23;;;17.60;99.90;;;;;;5023703;28;20422;-68
2022/10/03 10:55:12;;;;;;;5.17;4.37;;;18.10;99.90;;;;;;5023788;28;20503;-66
2022/10/03 10:57:59;;;;;;;7.23;4.03;;;18.80;99.90;;;;;;5026766;28;20430;-67
2022/10/03 11:00:48;;;;;;;11.07;5.43;;;19.10;99.90;;;;;;5024793;28;20502;-67
2022/10/03 11:03:51;;;;;;;7.47;4.57;;;18.50;99.90;;;;;;5025061;28;20959;-66
2022/10/03 11:06:47;;;;;;;33.70;6.30;;;18.60;99.90;;;;;;5025353;28;20526;-67
2022/10/03 11:09:46;;;;;;;15.70;7.30;;;19.30;99.90;;;;;;5027834;28;20470;-68
2022/10/03 11:12:43;;;;;;;7.33;4.10;;;19.30;99.90;;;;;;5023913;28;20437;-67
2022/10/03 11:15:26;;;;;;;11.30;4.63;;;18.90;99.90;;;;;;5022703;28;20875;-67
2022/10/03 11:18:22;;;;;;;37.20;7.30;;;18.70;99.90;;;;;;5027243;28;20484;-67
2022/10/03 11:20:50;;;;;;;33.90;6.87;;;18.70;99.90;;;;;;5025924;28;20438;-68
2022/10/03 11:23:22;;;;;;;19.33;5.13;;;18.80;99.90;;;;;;5022512;28;20507;-68
2022/10/03 11:25:53;;;;;;;9.50;4.63;;;19.20;99.90;;;;;;5027088;28;20851;-69
2022/10/03 11:28:37;;;;;;;9.80;4.47;;;19.50;99.90;;;;;;5025901;28;20449;-67
2022/10/03 11:31:40;;;;;;;123.40;14.70;;;19.10;99.90;;;;;;5024295;28;20531;-67
2022/10/03 11:34:30;;;;;;;62.53;7.77;;;19.40;99.90;;;;;;5018260;28;20450;-68
2022/10/03 11:37:19;;;;;;;23.13;4.37;;;19.70;99.90;;;;;;5023377;28;20579;-67
2022/10/03 11:40:30;;;;;;;46.70;6.50;;;19.60;99.90;;;;;;5024701;28;20801;-68
2022/10/03 11:43:23;;;;;;;48.13;7.13;;;19.80;99.90;;;;;;5022351;28;20450;-68
2022/10/03 11:45:54;;;;;;;29.23;5.63;;;19.80;99.90;;;;;;5025705;28;20473;-67
2022/10/03 11:48:32;;;;;;;59.60;8.27;;;20.00;99.90;;;;;;5022576;28;20437;-69
2022/10/03 11:51:18;;;;;;;28.47;6.67;;;20.20;99.90;;;;;;5023174;28;20468;-69
2022/10/03 11:53:46;;;;;;;5.40;3.50;;;20.20;99.90;;;;;;5023107;28;20430;-66
2022/10/03 11:56:42;;;;;;;84.23;13.07;;;19.80;99.90;;;;;;5024209;28;20829;-67
2022/10/03 11:59:19;;;;;;;11.20;4.57;;;19.90;99.90;;;;;;5019650;28;20430;-68
2022/10/03 12:01:51;;;;;;;13.23;4.60;;;19.70;99.90;;;;;;5026775;28;21149;-68
2022/10/03 12:04:29;;;;;;;9.13;3.30;;;19.50;99.90;;;;;;5023426;28;21494;-68
2022/10/03 12:10:19;;;;;;;22.87;5.00;;;18.30;99.90;;;;;;5022060;28;20461;-67
2022/10/03 12:12:49;;;;;;;10.60;4.20;;;18.50;99.90;;;;;;5027278;28;20985;-66
2022/10/03 12:15:23;;;;;;;11.50;5.13;;;18.70;99.90;;;;;;5024626;28;20516;-66
2022/10/03 12:18:13;;;;;;;3.60;3.30;;;19.10;99.90;;;;;;5025473;28;20525;-67
2022/10/03 12:21:01;;;;;;;13.57;4.50;;;18.90;99.90;;;;;;5021184;28;20926;-67
2022/10/03 12:23:40;;;;;;;6.87;4.17;;;18.60;99.90;;;;;;5025566;28;20426;-67
2022/10/03 12:26:12;;;;;;;4.87;3.47;;;18.60;99.90;;;;;;5022767;28;20525;-67
2022/10/03 12:28:43;;;;;;;21.47;4.73;;;18.40;99.90;;;;;;5027212;28;20415;-67
2022/10/03 12:31:55;;;;;;;6.53;3.63;;;18.50;99.90;;;;;;5027354;28;20434;-67
2022/10/03 12:34:48;;;;;;;5.77;3.60;;;18.40;99.90;;;;;;4983101;28;20450;-67
2022/10/03 12:37:47;;;;;;;24.37;4.60;;;18.70;99.90;;;;;;5023977;28;20414;-65
2022/10/03 12:40:23;;;;;;;4.97;3.40;;;18.70;99.90;;;;;;4977461;28;20438;-69
2022/10/03 12:43:27;;;;;;;30.70;5.70;;;18.60;99.90;;;;;;5021138;28;20926;-68
2022/10/03 12:46:00;;;;;;;3.73;3.23;;;18.60;99.90;;;;;;5008434;28;20557;-68
2022/10/03 12:48:46;;;;;;;37.63;7.40;;;18.30;99.90;;;;;;5022117;28;20508;-68
2022/10/03 12:51:30;;;;;;;62.53;9.73;;;18.30;99.90;;;;;;5012232;28;20493;-68
2022/10/03 12:54:42;;;;;;;48.03;9.93;;;18.50;99.90;;;;;;5014331;28;20899;-68
2022/10/03 12:57:27;;;;;;;12.27;4.50;;;18.60;99.90;;;;;;5016896;28;20403;-67
2022/10/03 13:00:22;;;;;;;9.50;5.00;;;18.80;99.90;;;;;;5008311;28;20824;-67
2022/10/03 13:03:10;;;;;;;15.60;5.33;;;18.80;99.90;;;;;;5007650;28;20462;-68
2022/10/03 13:05:36;;;;;;;26.70;6.63;;;18.80;99.90;;;;;;5015948;28;20474;-67
2022/10/03 13:08:27;;;;;;;24.93;5.60;;;18.80;99.90;;;;;;5016089;28;20493;-67
2022/10/03 13:11:00;;;;;;;44.20;7.80;;;18.70;99.90;;;;;;5011066;28;20459;-67
2022/10/03 13:13:44;;;;;;;17.20;4.97;;;18.60;99.90;;;;;;5011692;28;20422;-66
2022/10/03 13:16:57;;;;;;;16.97;4.63;;;18.40;99.90;;;;;;5017572;28;20405;-65
2022/10/03 13:19:29;;;;;;;9.00;4.87;;;18.40;99.90;;;;;;4984453;28;20439;-67
2022/10/03 13:22:24;;;;;;;6.73;4.57;;;18.30;99.90;;;;;;5015475;28;20419;-67
2022/10/03 13:25:23;;;;;;;8.73;4.87;;;18.30;99.90;;;;;;5015078;28;20457;-68
2022/10/03 13:28:05;;;;;;;6.30;3.90;;;18.40;99.90;;;;;;5024242;28;20485;-67
2022/10/03 13:30:44;;;;;;;11.83;4.80;;;18.30;99.90;;;;;;5017750;28;20801;-66
2022/10/03 13:33:17;;;;;;;15.73;5.20;;;18.40;99.90;;;;;;5009455;28;20425;-67
2022/10/03 13:35:58;;;;;;;33.17;6.50;;;18.60;99.90;;;;;;5008136;28;20438;-68
2022/10/03 13:38:47;;;;;;;19.87;5.20;;;18.80;99.90;;;;;;5007283;28;20402;-68
2022/10/03 13:41:24;;;;;;;30.80;6.50;;;18.80;99.90;;;;;;5020508;28;20462;-68
2022/10/03 13:43:58;;;;;;;39.33;7.67;;;18.90;99.90;;;;;;5029637;28;20845;-68
2022/10/03 13:46:43;;;;;;;12.33;4.30;;;19.00;99.90;;;;;;5031017;28;20425;-67
2022/10/03 13:49:33;;;;;;;9.10;5.20;;;19.00;99.90;;;;;;5026943;28;20461;-69
2022/10/03 13:52:10;;;;;;;21.23;5.20;;;18.70;99.90;;;;;;5017558;28;20426;-69
2022/10/03 13:55:09;;;;;;;29.90;6.30;;;18.60;99.90;;;;;;5010831;28;20430;-67
2022/10/03 13:57:59;;;;;;;20.30;4.93;;;18.50;99.90;;;;;;5011405;28;20580;-67
2022/10/03 14:00:30;;;;;;;24.13;5.20;;;18.30;99.90;;;;;;5017586;28;20619;-69
2022/10/03 14:03:18;;;;;;;4.37;3.17;;;18.30;99.90;;;;;;5015317;28;20753;-68
2022/10/03 14:05:47;;;;;;;6.43;3.73;;;18.20;99.90;;;;;;5012998;28;20438;-68
2022/10/03 14:08:50;;;;;;;21.23;5.70;;;17.90;99.90;;;;;;5021725;28;20434;-69
2022/10/03 14:12:23;;;;;;;35.80;6.63;;;17.80;99.90;;;;;;5011643;28;20825;-68
2022/10/03 14:15:25;;;;;;;8.33;3.57;;;17.90;99.90;;;;;;4951199;29;20437;-68
2022/10/03 14:18:12;;;;;;;10.00;3.00;;;17.80;99.90;;;;;;5021553;28;20484;-69
2022/10/03 14:21:16;;;;;;;34.87;5.57;;;17.70;99.90;;;;;;5036131;28;20816;-66
2022/10/03 14:24:27;;;;;;;10.60;4.07;;;17.70;99.90;;;;;;5038867;28;20410;-67
2022/10/03 14:26:52;;;;;;;8.90;3.80;;;17.50;99.90;;;;;;5046416;28;20429;-68
2022/10/03 14:29:40;;;;;;;9.30;4.03;;;17.50;99.90;;;;;;5044606;28;20601;-67
2022/10/03 14:32:17;;;;;;;15.67;3.60;;;17.60;99.90;;;;;;5037339;28;20184;-68
2022/10/03 14:35:02;;;;;;;6.90;3.63;;;17.30;99.90;;;;;;5029202;28;20430;-66
2022/10/03 14:38:00;;;;;;;3.40;3.10;;;17.20;99.90;;;;;;5017643;28;20414;-67
2022/10/03 14:40:57;;;;;;;6.17;3.90;;;17.00;99.90;;;;;;5016156;28;20442;-66